Time;durP1;ratioP1;P1;durP2;ratioP2;P2;SDS_P1;SDS_P2;PMS_P1;PMS_P2;Temp;Humidity;BMP_temperature;BMP_pressure;BME280_temperature;BME280_humidity;BME280_pressure;Samples;Min_cycle;Max_cycle;Signal;HPM_P1;HPM_P2
2022/05/21 00:01:09;;;;;;;4.20;1.30;;;11.60;99.90;;;;;;6190635;23;20052;-94
2022/05/21 00:03:35;;;;;;;4.27;1.40;;;11.60;99.90;;;;;;6216118;23;20072;-88
2022/05/21 00:06:01;;;;;;;4.27;1.93;;;11.60;99.90;;;;;;6189514;23;20331;-86
2022/05/21 00:08:27;;;;;;;4.70;1.63;;;11.50;99.90;;;;;;6189725;23;20097;-85
2022/05/21 00:10:52;;;;;;;3.50;1.40;;;11.50;99.90;;;;;;6189995;23;20584;-94
2022/05/21 00:13:18;;;;;;;4.93;1.33;;;11.50;99.90;;;;;;6214931;23;20028;-85
2022/05/21 00:15:45;;;;;;;3.67;1.50;;;11.50;99.90;;;;;;6214935;23;20012;-84
2022/05/21 00:18:11;;;;;;;3.50;1.40;;;11.50;99.90;;;;;;6189798;23;20016;-85
2022/05/21 00:20:48;;;;;;;3.92;1.67;;;11.50;99.90;;;;;;6189924;23;20021;-86
2022/05/21 00:23:27;;;;;;;4.72;1.88;;;11.50;99.90;;;;;;6189595;23;20025;-84
2022/05/21 00:25:57;;;;;;;4.85;1.70;;;11.50;99.90;;;;;;6164924;23;20021;-91
2022/05/21 00:28:24;;;;;;;3.78;1.60;;;11.50;99.90;;;;;;6189661;23;20017;-86
2022/05/21 00:30:50;;;;;;;4.45;1.67;;;11.50;99.90;;;;;;6189759;23;20438;-85
2022/05/21 00:33:16;;;;;;;5.97;2.08;;;11.40;99.90;;;;;;6189576;23;20027;-86
2022/05/21 00:35:42;;;;;;;5.72;1.77;;;11.40;99.90;;;;;;6216335;23;20016;-86
2022/05/21 00:38:09;;;;;;;5.40;2.22;;;11.50;99.90;;;;;;6189723;23;20051;-86
2022/05/21 00:40:37;;;;;;;4.85;2.35;;;11.50;99.90;;;;;;6189538;23;20021;-92
2022/05/21 00:43:04;;;;;;;4.75;1.85;;;11.50;99.90;;;;;;6216165;23;20028;-85
2022/05/21 00:45:30;;;;;;;4.60;2.08;;;11.50;99.90;;;;;;6189540;23;20048;-85
2022/05/21 00:47:56;;;;;;;8.95;2.65;;;11.50;99.90;;;;;;6189578;23;20024;-86
2022/05/21 00:50:27;;;;;;;5.28;2.13;;;11.60;99.90;;;;;;6189668;23;20434;-84
2022/05/21 00:52:53;;;;;;;6.65;2.97;;;11.60;99.90;;;;;;6215727;23;20012;-90
2022/05/21 00:55:23;;;;;;;;;;;11.60;99.90;;;;;;6216609;23;20028;-85
2022/05/21 01:00:56;;;;;;;7.97;3.15;;;11.60;99.90;;;;;;6187693;23;20024;-85
2022/05/21 01:03:23;;;;;;;6.35;2.90;;;11.60;99.90;;;;;;6188272;23;20024;-84
2022/05/21 01:05:50;;;;;;;7.82;3.60;;;11.70;99.90;;;;;;6189270;23;20374;-82
2022/05/21 01:08:17;;;;;;;8.70;3.63;;;11.70;99.90;;;;;;6216258;23;20204;-87
2022/05/21 01:10:48;;;;;;;8.45;3.95;;;11.70;99.90;;;;;;6189582;23;20434;-84
2022/05/21 01:13:18;;;;;;;7.50;4.00;;;11.80;99.90;;;;;;6189692;23;20519;-84
2022/05/21 01:15:59;;;;;;;7.53;3.60;;;11.80;99.90;;;;;;6216534;23;20021;-84
2022/05/21 01:18:56;;;;;;;6.72;3.63;;;11.80;99.90;;;;;;6189963;23;20043;-84
2022/05/21 01:37:00;;;;;;;8.18;4.20;;;11.90;99.90;;;;;;6222637;23;20054;-94
2022/05/21 01:39:26;;;;;;;6.77;4.23;;;11.90;99.90;;;;;;6220483;23;20020;-92
2022/05/21 01:41:59;;;;;;;8.10;4.10;;;11.90;99.90;;;;;;6195155;23;20020;-92
2022/05/21 01:44:46;;;;;;;7.40;3.63;;;11.90;99.90;;;;;;6195074;23;20020;-91
2022/05/21 01:47:25;;;;;;;9.05;4.60;;;11.90;99.90;;;;;;6195196;23;20441;-92
2022/05/21 01:50:31;;;;;;;9.70;4.35;;;11.90;99.90;;;;;;6195382;23;20019;-92
2022/05/21 01:53:15;;;;;;;8.50;5.18;;;11.90;99.90;;;;;;6195205;23;20341;-93
2022/05/21 02:27:47;;;;;;;9.73;5.68;;;12.20;99.90;;;;;;6222150;23;20091;-94
2022/05/21 02:50:55;;;;;;;14.25;6.20;;;12.40;99.90;;;;;;6225737;23;20024;-92
2022/05/21 02:53:41;;;;;;;10.93;5.73;;;12.50;99.90;;;;;;6198070;23;20078;-90
2022/05/21 02:56:09;;;;;;;9.38;5.68;;;12.50;99.90;;;;;;6198478;23;20027;-91
2022/05/21 02:58:38;;;;;;;10.48;6.10;;;12.50;99.90;;;;;;6198934;23;20047;-93
2022/05/21 03:01:04;;;;;;;11.13;6.70;;;12.50;99.90;;;;;;6198840;23;20020;-91
2022/05/21 03:03:35;;;;;;;9.43;6.33;;;12.50;99.90;;;;;;6200583;23;20027;-90
2022/05/21 03:06:06;;;;;;;10.55;6.35;;;12.60;99.90;;;;;;6200061;23;20016;-90
2022/05/21 03:11:18;;;;;;;10.77;5.50;;;12.60;99.90;;;;;;6224051;23;20020;-93
2022/05/21 03:13:43;;;;;;;10.73;5.63;;;12.60;99.90;;;;;;6198718;23;20452;-92
2022/05/21 03:16:13;;;;;;;9.10;5.07;;;12.60;99.90;;;;;;6198507;23;20012;-92
2022/05/21 03:18:42;;;;;;;7.85;4.53;;;12.60;99.90;;;;;;6198942;23;20027;-93
2022/05/21 03:31:27;;;;;;;7.00;3.10;;;12.80;99.90;;;;;;6277046;22;20027;-92
2022/05/21 03:34:15;;;;;;;;;;;;;;;;;;;;;
2022/05/21 03:37:42;;;;;;;;;;;;;;;;;;;;;
2022/05/21 03:40:18;;;;;;;7.00;2.35;;;12.80;99.90;;;;;;6165382;23;20078;-92
2022/05/21 03:58:35;;;;;;;6.32;1.92;;;13.00;99.90;;;;;;6277774;22;20081;-92
2022/05/21 04:06:52;;;;;;;5.22;1.67;;;13.10;99.90;;;;;;6216531;23;20024;-91
2022/05/21 04:14:29;;;;;;;5.50;2.00;;;13.10;99.90;;;;;;6291107;22;20023;-90
2022/05/21 04:16:57;;;;;;;5.40;2.00;;;13.10;99.90;;;;;;6233582;22;20030;-92
2022/05/21 04:19:23;;;;;;;3.63;1.63;;;13.10;99.90;;;;;;6224970;22;20150;-92
2022/05/21 04:25:06;;;;;;;4.85;1.55;;;13.10;99.90;;;;;;6193972;22;20449;-94
2022/05/21 04:37:53;;;;;;;2.72;1.25;;;13.10;99.90;;;;;;6186238;23;20029;-92
2022/05/21 04:46:08;;;;;;;3.00;1.30;;;13.10;99.90;;;;;;6214863;23;20024;-92
2022/05/21 04:48:35;;;;;;;;;;;13.10;99.90;;;;;;6173101;23;20020;-90
2022/05/21 04:56:19;;;;;;;3.17;1.40;;;13.10;99.90;;;;;;6240217;22;20027;-92
2022/05/21 05:12:36;;;;;;;;;;;;;;;;;;;;;
2022/05/21 05:17:40;;;;;;;3.53;1.02;;;13.20;99.90;;;;;;6246798;22;20074;-89
2022/05/21 05:20:25;;;;;;;4.35;1.27;;;13.20;99.90;;;;;;6194894;23;20024;-92
2022/05/21 05:22:56;;;;;;;3.72;1.30;;;13.20;99.90;;;;;;6195137;23;20341;-93
2022/05/21 05:25:22;;;;;;;2.97;1.02;;;13.20;99.90;;;;;;6194957;23;20016;-93
2022/05/21 05:32:59;;;;;;;3.35;1.10;;;13.30;99.90;;;;;;6186200;23;20028;-90
2022/05/21 05:35:24;;;;;;;4.10;1.00;;;13.30;99.90;;;;;;6135347;23;20017;-92
2022/05/21 05:37:50;;;;;;;1.50;0.73;;;13.30;99.90;;;;;;6160108;23;20320;-91
2022/05/21 05:53:16;;;;;;;3.63;0.93;;;13.40;99.90;;;;;;6240231;22;20020;-89
2022/05/21 06:12:35;;;;;;;5.82;2.28;;;13.60;99.90;;;;;;6275803;22;20091;-92
2022/05/21 06:15:10;;;;;;;2.95;0.90;;;13.60;99.90;;;;;;6225885;22;20043;-89
2022/05/21 06:17:37;;;;;;;2.85;1.00;;;13.70;99.90;;;;;;6233263;22;20026;-91
2022/05/21 06:20:05;;;;;;;2.75;0.93;;;13.80;99.90;;;;;;6224295;22;20016;-89
2022/05/21 06:22:32;;;;;;;4.15;1.02;;;13.90;99.90;;;;;;6224043;22;20011;-89
2022/05/21 06:25:01;;;;;;;4.35;0.95;;;14.00;99.90;;;;;;6224542;22;20077;-89
2022/05/21 06:27:27;;;;;;;5.03;1.05;;;14.20;99.90;;;;;;6250059;22;20007;-89
2022/05/21 06:29:57;;;;;;;4.60;1.67;;;14.30;99.90;;;;;;6224557;22;20019;-91
2022/05/21 06:32:27;;;;;;;5.15;1.05;;;14.50;99.90;;;;;;6224996;22;20012;-91
2022/05/21 06:34:53;;;;;;;3.35;1.08;;;14.70;99.90;;;;;;6225230;22;20020;-90
2022/05/21 06:40:25;;;;;;;2.95;1.17;;;14.90;99.90;;;;;;6238923;23;20024;-91
2022/05/21 06:42:51;;;;;;;5.38;1.10;;;14.90;99.90;;;;;;6174408;23;20012;-92
2022/05/21 06:45:22;;;;;;;6.97;1.10;;;15.10;99.90;;;;;;6219212;23;20016;-90
2022/05/21 06:47:48;;;;;;;4.25;1.00;;;15.30;99.90;;;;;;6219742;23;20259;-91
2022/05/21 06:50:13;;;;;;;4.75;1.00;;;15.50;99.90;;;;;;6225218;23;20016;-89
2022/05/21 06:52:39;;;;;;;5.73;1.00;;;15.60;99.90;;;;;;6224889;23;20430;-89
2022/05/21 06:55:05;;;;;;;5.05;1.00;;;15.40;99.90;;;;;;6219602;23;20023;-90
2022/05/21 07:00:07;;;;;;;4.78;0.90;;;15.30;99.90;;;;;;6306483;22;20031;-89
2022/05/21 07:02:34;;;;;;;;;;;15.30;99.90;;;;;;6256223;22;20019;-90
2022/05/21 07:07:44;;;;;;;4.60;1.00;;;15.40;99.90;;;;;;6282139;22;20081;-90
2022/05/21 07:10:19;;;;;;;4.97;1.00;;;15.90;99.90;;;;;;6256962;22;20017;-91
2022/05/21 07:49:32;;;;;;;3.95;1.27;;;15.60;99.90;;;;;;6244669;22;20024;-89
2022/05/21 08:27:58;;;;;;;5.47;0.98;;;15.50;99.90;;;;;;6098178;23;20029;-87
2022/05/21 08:39:00;;;;;;;3.17;0.75;;;15.60;99.90;;;;;;6227670;23;20028;-89
2022/05/21 09:03:59;;;;;;;3.10;0.60;;;15.60;99.90;;;;;;6303678;22;20023;-88
2022/05/21 09:06:48;;;;;;;2.83;0.75;;;15.40;99.90;;;;;;6253735;22;20015;-89
2022/05/21 09:09:30;;;;;;;1.73;0.60;;;15.30;99.90;;;;;;6252834;22;20038;-91
2022/05/21 09:12:10;;;;;;;1.15;0.50;;;15.30;99.90;;;;;;6254117;22;20092;-93
2022/05/21 09:14:45;;;;;;;2.72;0.80;;;15.40;99.90;;;;;;6279748;22;20015;-91
2022/05/21 09:17:23;;;;;;;1.73;0.60;;;15.40;99.90;;;;;;6254146;22;20015;-92
2022/05/21 09:19:56;;;;;;;5.90;0.75;;;15.30;99.90;;;;;;6254404;22;20018;-91
2022/05/21 09:22:22;;;;;;;3.67;0.90;;;15.30;99.90;;;;;;6253815;22;20019;-90
2022/05/21 09:24:59;;;;;;;3.33;0.95;;;15.40;99.90;;;;;;6251620;22;20018;-91
2022/05/21 09:27:35;;;;;;;3.47;0.70;;;15.40;99.90;;;;;;6254219;22;20076;-91
2022/05/21 09:30:15;;;;;;;3.30;0.70;;;15.40;99.90;;;;;;6254548;22;20011;-91
2022/05/21 09:32:46;;;;;;;2.78;1.00;;;15.50;99.90;;;;;;6254102;22;20033;-90
2022/05/21 09:35:46;;;;;;;4.55;0.65;;;15.50;99.90;;;;;;6253943;22;20448;-90
2022/05/21 09:38:21;;;;;;;3.45;0.80;;;15.60;99.90;;;;;;6254466;22;20019;-88
2022/05/21 09:40:47;;;;;;;2.92;1.13;;;15.50;99.90;;;;;;6253853;22;20094;-92
2022/05/21 09:46:20;;;;;;;3.85;0.80;;;15.50;99.90;;;;;;6279351;22;20364;-89
2022/05/21 09:48:48;;;;;;;3.28;0.88;;;15.40;99.90;;;;;;6252855;22;20015;-87
2022/05/21 09:51:29;;;;;;;1.85;0.60;;;15.40;99.90;;;;;;6254345;22;20086;-90
2022/05/21 09:53:56;;;;;;;2.25;0.73;;;15.50;99.90;;;;;;6254009;22;20021;-92
2022/05/21 09:56:27;;;;;;;2.92;1.00;;;15.60;99.90;;;;;;6254021;22;20090;-86
2022/05/21 09:59:24;;;;;;;2.42;0.50;;;15.80;99.90;;;;;;6279755;22;20656;-88
2022/05/21 10:01:53;;;;;;;4.03;0.63;;;15.80;99.90;;;;;;6223899;22;20098;-86
2022/05/21 10:04:40;;;;;;;5.93;0.80;;;15.80;99.90;;;;;;6200115;22;1140370;-89
2022/05/21 10:10:58;;;;;;;3.60;0.63;;;15.70;99.90;;;;;;6249394;22;20020;-88
2022/05/21 10:13:08;;;;;;;3.10;0.70;;;15.90;99.90;;;;;;6251384;22;20403;-88
2022/05/21 10:15:40;;;;;;;2.08;0.50;;;16.10;99.90;;;;;;6249563;22;20020;-86
2022/05/21 10:18:20;;;;;;;1.88;0.50;;;16.20;99.90;;;;;;6249414;22;20027;-88
2022/05/21 10:20:54;;;;;;;2.65;0.68;;;16.30;99.90;;;;;;6249430;22;20047;-88
2022/05/21 10:23:31;;;;;;;3.90;0.70;;;16.30;99.90;;;;;;6275048;22;20073;-89
2022/05/21 10:26:06;;;;;;;1.95;0.70;;;16.20;99.90;;;;;;6249390;22;20098;-88
2022/05/21 10:29:12;;;;;;;2.47;0.60;;;16.10;99.90;;;;;;6249499;22;20019;-88
2022/05/21 10:32:13;;;;;;;3.35;0.73;;;15.90;99.90;;;;;;6249181;22;20463;-89
2022/05/21 10:34:51;;;;;;;3.53;0.68;;;16.00;99.90;;;;;;6259632;22;20020;-88
2022/05/21 10:37:52;;;;;;;5.32;0.90;;;16.10;99.90;;;;;;6251154;22;20105;-89
2022/05/21 10:40:33;;;;;;;3.67;0.65;;;16.20;99.90;;;;;;6276840;22;20022;-88
2022/05/21 10:43:17;;;;;;;3.30;0.80;;;16.20;99.90;;;;;;6251217;22;20062;-88
2022/05/21 10:46:27;;;;;;;1.75;0.60;;;16.20;99.90;;;;;;6251572;22;20024;-87
2022/05/21 10:49:19;;;;;;;3.83;0.65;;;16.20;99.90;;;;;;6208953;22;20015;-87
2022/05/21 10:51:44;;;;;;;2.92;0.70;;;16.10;99.90;;;;;;6251490;22;20047;-88
2022/05/21 10:54:31;;;;;;;4.37;0.80;;;16.10;99.90;;;;;;6253184;22;20019;-89
2022/05/21 10:57:24;;;;;;;2.05;0.80;;;16.00;99.90;;;;;;6253817;22;20016;-87
2022/05/21 11:00:02;;;;;;;2.72;0.60;;;16.10;99.90;;;;;;6276603;22;20015;-87
2022/05/21 11:02:51;;;;;;;3.55;0.60;;;16.20;99.90;;;;;;6250770;22;20392;-89
2022/05/21 11:05:50;;;;;;;2.35;0.68;;;16.40;99.90;;;;;;6277137;22;20081;-87
2022/05/21 11:08:37;;;;;;;3.53;0.70;;;16.70;99.90;;;;;;6251389;22;20038;-88
2022/05/21 11:11:31;;;;;;;2.83;0.82;;;16.90;99.90;;;;;;6251115;22;20047;-89
2022/05/21 11:14:08;;;;;;;4.03;0.50;;;17.20;99.90;;;;;;6276700;22;20094;-89
2022/05/21 11:16:41;;;;;;;2.22;0.63;;;17.20;99.90;;;;;;6277052;22;20035;-89
2022/05/21 11:19:19;;;;;;;2.00;0.47;;;17.10;99.90;;;;;;6276885;22;20445;-90
2022/05/21 11:21:50;;;;;;;2.28;0.60;;;17.10;99.90;;;;;;6251246;22;20018;-89
2022/05/21 11:24:23;;;;;;;2.55;1.13;;;17.30;99.90;;;;;;6251365;22;20441;-90
2022/05/21 11:27:08;;;;;;;2.05;0.60;;;17.50;99.90;;;;;;6251288;22;20046;-89
2022/05/21 11:29:55;;;;;;;2.17;0.70;;;17.50;99.90;;;;;;6251276;22;20015;-88
2022/05/21 11:38:10;;;;;;;4.82;1.42;;;17.60;99.90;;;;;;6277016;22;20026;-90
2022/05/21 11:40:50;;;;;;;2.15;0.60;;;17.70;99.90;;;;;;6251773;22;20016;-91
2022/05/21 11:43:20;;;;;;;4.07;0.80;;;17.70;99.90;;;;;;6252568;22;20024;-90
2022/05/21 11:46:01;;;;;;;5.53;1.17;;;17.80;99.90;;;;;;6251529;22;20020;-93
2022/05/21 11:48:30;;;;;;;1.83;0.70;;;17.80;99.90;;;;;;6251134;22;20171;-90
2022/05/21 11:51:22;;;;;;;2.05;0.57;;;17.70;99.90;;;;;;6251544;22;20101;-91
2022/05/21 11:53:48;;;;;;;2.50;0.70;;;17.50;99.90;;;;;;6238988;22;20058;-89
2022/05/21 11:56:14;;;;;;;2.67;0.52;;;17.40;99.90;;;;;;6251269;22;20007;-90
2022/05/21 11:59:06;;;;;;;5.03;0.60;;;17.30;99.90;;;;;;6251371;22;20022;-91
2022/05/21 12:01:38;;;;;;;2.28;0.90;;;17.40;99.90;;;;;;6246211;22;20069;-90
2022/05/21 12:04:24;;;;;;;2.28;0.80;;;17.40;99.90;;;;;;6250735;22;20074;-90
2022/05/21 12:06:50;;;;;;;1.73;0.70;;;17.30;99.90;;;;;;6251521;22;20022;-88
2022/05/21 12:09:26;;;;;;;1.83;0.80;;;17.20;99.90;;;;;;6251279;22;20094;-88
2022/05/21 12:12:22;;;;;;;1.88;0.63;;;17.30;99.90;;;;;;6251300;22;20016;-90
2022/05/21 12:15:08;;;;;;;3.35;0.82;;;17.20;99.90;;;;;;6276904;22;20016;-90
2022/05/21 12:17:43;;;;;;;5.20;0.93;;;17.10;99.90;;;;;;6250811;22;20502;-90
2022/05/21 12:20:12;;;;;;;3.95;1.00;;;17.10;99.90;;;;;;6251022;22;20015;-91
2022/05/21 12:22:42;;;;;;;3.97;1.00;;;17.00;99.90;;;;;;6249984;22;20015;-91
2022/05/21 12:25:41;;;;;;;2.80;0.88;;;16.90;99.90;;;;;;6250265;22;20020;-91
2022/05/21 12:28:09;;;;;;;5.20;0.93;;;16.90;99.90;;;;;;6274942;22;20047;-92
2022/05/21 12:30:34;;;;;;;3.67;0.98;;;17.00;99.90;;;;;;6250712;22;20493;-88
2022/05/21 12:33:00;;;;;;;4.10;1.00;;;17.30;99.90;;;;;;6275530;22;20108;-88
2022/05/21 12:35:38;;;;;;;2.13;0.70;;;17.30;99.90;;;;;;6248646;22;20077;-89
2022/05/21 12:38:25;;;;;;;3.75;0.80;;;17.30;99.90;;;;;;6275800;22;20094;-87
2022/05/21 12:41:04;;;;;;;2.58;0.90;;;17.30;99.90;;;;;;6250270;22;20016;-88
2022/05/21 12:43:50;;;;;;;3.90;0.80;;;17.40;99.90;;;;;;6250261;22;20114;-87
2022/05/21 12:46:22;;;;;;;2.60;0.70;;;17.50;99.90;;;;;;6250514;22;20020;-89
2022/05/21 12:48:49;;;;;;;3.75;0.47;;;17.60;99.90;;;;;;6249010;22;20051;-89
2022/05/21 12:51:28;;;;;;;4.40;1.70;;;17.60;99.90;;;;;;6275890;22;20453;-88
2022/05/21 12:53:55;;;;;;;2.42;0.50;;;17.70;99.90;;;;;;6250226;22;20461;-89
2022/05/21 12:56:32;;;;;;;3.10;0.65;;;17.50;99.90;;;;;;6250572;22;20073;-88
2022/05/21 12:59:09;;;;;;;1.35;0.60;;;17.30;99.90;;;;;;6276013;22;20023;-88
2022/05/21 13:01:43;;;;;;;1.48;0.50;;;17.10;99.90;;;;;;6253270;22;20034;-88
2022/05/21 13:04:29;;;;;;;2.90;0.70;;;17.00;99.90;;;;;;6275322;22;20031;-89
2022/05/21 13:07:05;;;;;;;4.75;0.95;;;16.90;99.90;;;;;;6275681;22;20458;-88
2022/05/21 13:09:34;;;;;;;3.33;0.70;;;16.90;99.90;;;;;;6250087;22;20019;-88
2022/05/21 13:12:02;;;;;;;2.65;0.63;;;17.00;99.90;;;;;;6249842;22;20015;-88
2022/05/21 13:14:37;;;;;;;3.17;0.93;;;17.00;99.90;;;;;;6249221;22;20015;-88
2022/05/21 13:17:03;;;;;;;2.53;0.60;;;16.90;99.90;;;;;;6277262;22;20396;-89
2022/05/21 13:19:41;;;;;;;4.57;0.90;;;16.80;99.90;;;;;;6250284;22;20066;-89
2022/05/21 13:22:23;;;;;;;2.20;0.57;;;16.70;99.90;;;;;;6249879;22;20420;-88
2022/05/21 13:25:02;;;;;;;2.13;0.88;;;16.70;99.90;;;;;;6275643;22;20020;-89
2022/05/21 13:27:28;;;;;;;2.60;0.80;;;16.60;99.90;;;;;;6249920;22;20016;-88
2022/05/21 13:29:55;;;;;;;5.20;0.80;;;16.60;99.90;;;;;;6274509;22;20076;-89
2022/05/21 13:32:26;;;;;;;4.13;0.85;;;16.60;99.90;;;;;;6247996;22;20024;-87
2022/05/21 13:34:54;;;;;;;4.95;0.88;;;16.70;99.90;;;;;;6275220;22;20091;-89
2022/05/21 13:37:33;;;;;;;3.38;0.93;;;16.80;99.90;;;;;;6275607;22;20539;-89
2022/05/21 13:40:01;;;;;;;5.38;1.10;;;17.00;99.90;;;;;;6250057;22;20015;-88
2022/05/21 13:42:27;;;;;;;2.25;0.70;;;17.10;99.90;;;;;;6274664;22;20020;-89
2022/05/21 13:44:59;;;;;;;2.30;0.90;;;17.20;99.90;;;;;;6275060;22;20019;-90
2022/05/21 13:47:32;;;;;;;4.38;0.93;;;17.20;99.90;;;;;;6249727;22;20099;-88
2022/05/21 13:49:58;;;;;;;3.90;0.63;;;17.10;99.90;;;;;;6275370;22;20091;-88
2022/05/21 13:52:26;;;;;;;1.83;0.55;;;17.00;99.90;;;;;;6275420;22;20016;-88
2022/05/21 13:54:53;;;;;;;1.83;0.50;;;17.00;99.90;;;;;;6275356;22;20015;-89
2022/05/21 13:57:25;;;;;;;2.30;0.73;;;17.10;99.90;;;;;;6248717;22;20015;-90
2022/05/21 13:59:54;;;;;;;2.22;0.40;;;17.30;99.90;;;;;;6274294;22;20011;-90
2022/05/21 14:02:24;;;;;;;2.20;0.60;;;17.40;99.90;;;;;;6250450;22;20012;-92
2022/05/21 14:04:51;;;;;;;3.65;0.73;;;17.40;99.90;;;;;;6250088;22;20056;-91
2022/05/21 14:07:22;;;;;;;2.00;0.65;;;17.40;99.90;;;;;;6250198;22;20027;-90
2022/05/21 14:09:51;;;;;;;2.38;0.65;;;17.40;99.90;;;;;;6250184;22;20065;-91
2022/05/21 14:12:45;;;;;;;1.50;0.65;;;17.30;99.90;;;;;;6250300;22;20026;-90
2022/05/21 14:15:24;;;;;;;4.60;0.70;;;17.20;99.90;;;;;;6250154;22;20023;-91
2022/05/21 14:17:56;;;;;;;2.22;0.80;;;17.30;99.90;;;;;;6275756;22;20180;-91
2022/05/21 14:20:31;;;;;;;4.80;1.02;;;17.30;99.90;;;;;;6275416;22;20015;-91
2022/05/21 14:23:28;;;;;;;1.58;0.50;;;17.30;99.90;;;;;;6250058;22;20050;-92
2022/05/21 14:26:31;;;;;;;2.20;0.60;;;17.40;99.90;;;;;;6250184;22;20016;-93
2022/05/21 14:28:58;;;;;;;2.80;0.57;;;17.40;99.90;;;;;;6250294;22;20095;-90
2022/05/21 14:31:36;;;;;;;2.65;0.40;;;17.40;99.90;;;;;;6249583;22;20016;-91
2022/05/21 14:34:19;;;;;;;2.33;0.50;;;17.20;99.90;;;;;;6275594;22;20018;-91
2022/05/21 14:36:49;;;;;;;1.60;0.40;;;17.20;99.90;;;;;;6249713;22;20023;-90
2022/05/21 14:39:15;;;;;;;1.65;0.35;;;17.10;99.90;;;;;;6249980;22;20508;-90
2022/05/21 14:41:45;;;;;;;1.30;0.52;;;17.10;99.90;;;;;;6276128;22;20023;-91
2022/05/21 14:44:21;;;;;;;3.00;0.50;;;17.10;99.90;;;;;;6275009;22;20108;-90
2022/05/21 14:49:32;;;;;;;1.35;0.35;;;17.00;99.90;;;;;;6274975;22;20085;-93
2022/05/21 14:54:45;;;;;;;4.75;0.57;;;16.90;99.90;;;;;;6275481;22;20441;-92
2022/05/21 14:57:47;;;;;;;;;;;;;;;;;;;;;
2022/05/21 15:09:12;;;;;;;2.60;0.60;;;16.90;99.90;;;;;;6131269;23;20050;-91
2022/05/21 15:12:20;;;;;;;3.03;0.75;;;16.90;99.90;;;;;;6124902;23;20030;-88
2022/05/21 15:18:36;;;;;;;1.85;0.50;;;16.90;99.90;;;;;;6126361;23;20069;-88
2022/05/21 15:21:02;;;;;;;3.00;0.60;;;16.90;99.90;;;;;;6099904;23;20381;-88
2022/05/21 15:23:28;;;;;;;3.47;0.60;;;16.90;99.90;;;;;;6101048;23;20021;-87
2022/05/21 15:25:54;;;;;;;3.67;0.70;;;16.90;99.90;;;;;;6126025;23;20128;-87
2022/05/21 15:28:32;;;;;;;1.60;0.45;;;16.80;99.90;;;;;;6126662;23;20021;-87
2022/05/21 15:30:57;;;;;;;3.28;0.60;;;16.80;99.90;;;;;;6101752;23;20440;-89
2022/05/21 15:33:23;;;;;;;3.88;0.77;;;16.70;99.90;;;;;;6102163;23;20051;-86
2022/05/21 15:35:49;;;;;;;2.65;0.52;;;16.70;99.90;;;;;;6126676;23;20018;-90
2022/05/21 15:38:15;;;;;;;;;;;16.70;99.90;;;;;;6128015;23;20022;-89
2022/05/21 15:40:43;;;;;;;3.17;0.70;;;16.80;99.90;;;;;;6128682;23;19924;-88
2022/05/21 15:43:15;;;;;;;3.20;0.60;;;16.80;99.90;;;;;;6103157;23;20028;-90
2022/05/21 15:45:40;;;;;;;1.13;0.35;;;16.70;99.90;;;;;;6131341;23;20017;-88
2022/05/21 15:48:06;;;;;;;0.80;0.35;;;16.70;99.90;;;;;;6157282;23;20014;-88
2022/05/21 15:50:32;;;;;;;3.40;0.70;;;16.70;99.90;;;;;;6131433;23;20447;-87
2022/05/21 15:52:59;;;;;;;1.85;0.50;;;16.70;99.90;;;;;;6131124;23;20021;-87
2022/05/21 15:55:26;;;;;;;2.55;0.52;;;16.80;99.90;;;;;;6130596;23;20041;-88
2022/05/21 15:57:53;;;;;;;1.60;0.50;;;16.90;99.90;;;;;;6106770;23;20087;-90
2022/05/21 16:00:19;;;;;;;0.93;0.38;;;16.90;99.90;;;;;;6156509;23;20018;-89
2022/05/21 16:02:46;;;;;;;;;;;16.90;99.90;;;;;;6130559;23;20036;-90
2022/05/21 16:05:16;;;;;;;2.53;0.60;;;16.90;99.90;;;;;;6106599;23;19952;-90
2022/05/21 16:07:43;;;;;;;4.50;0.75;;;17.00;99.90;;;;;;6113177;23;20013;-92
2022/05/21 16:10:12;;;;;;;3.40;0.68;;;17.00;99.90;;;;;;6136924;23;20025;-92
2022/05/21 16:12:39;;;;;;;2.78;0.40;;;16.90;99.90;;;;;;6160818;23;20017;-90
2022/05/21 16:15:08;;;;;;;;;;;16.80;99.90;;;;;;6160235;23;20338;-91
2022/05/21 16:17:37;;;;;;;2.97;0.70;;;16.70;99.90;;;;;;6135468;23;20326;-89
2022/05/21 16:20:03;;;;;;;2.08;0.50;;;16.60;99.90;;;;;;6136378;23;20071;-89
2022/05/21 16:22:29;;;;;;;4.00;0.60;;;16.50;99.90;;;;;;6160308;23;20017;-91
2022/05/21 16:24:54;;;;;;;3.65;0.77;;;16.50;99.90;;;;;;6135507;23;20094;-91
2022/05/21 16:27:22;;;;;;;2.70;0.60;;;16.40;99.90;;;;;;6135683;23;20024;-94
2022/05/21 16:29:52;;;;;;;2.45;0.63;;;16.30;99.90;;;;;;6135972;23;20060;-89
2022/05/21 16:32:23;;;;;;;3.67;0.70;;;16.30;99.90;;;;;;6136291;23;20017;-91
2022/05/21 16:34:49;;;;;;;3.20;0.57;;;16.20;99.90;;;;;;6136357;23;20009;-92
2022/05/21 16:37:18;;;;;;;2.70;0.93;;;16.20;99.90;;;;;;6136359;23;20048;-92
2022/05/21 16:39:44;;;;;;;2.40;0.70;;;16.10;99.90;;;;;;6136386;23;20076;-90
2022/05/21 16:42:11;;;;;;;2.42;0.80;;;16.10;99.90;;;;;;6136207;23;20028;-90
2022/05/21 16:44:38;;;;;;;3.70;0.70;;;16.00;99.90;;;;;;6135777;23;20099;-89
2022/05/21 16:47:04;;;;;;;2.42;0.70;;;16.00;99.90;;;;;;6136049;23;20020;-92
2022/05/21 16:49:31;;;;;;;3.83;0.63;;;15.90;99.90;;;;;;6136212;23;20049;-92
2022/05/21 16:51:57;;;;;;;2.35;0.55;;;15.90;99.90;;;;;;6136213;23;20027;-91
2022/05/21 16:54:24;;;;;;;5.10;0.90;;;15.90;99.90;;;;;;6136102;23;20013;-90
2022/05/21 16:56:50;;;;;;;4.20;0.70;;;15.90;99.90;;;;;;6135911;23;20104;-90
2022/05/21 16:59:17;;;;;;;2.63;0.70;;;15.90;99.90;;;;;;6135870;23;20397;-90
2022/05/21 17:01:44;;;;;;;;;;;15.80;99.90;;;;;;6135023;23;20025;-88
2022/05/21 17:04:11;;;;;;;5.37;1.00;;;15.80;99.90;;;;;;6133159;23;19916;-88
2022/05/21 17:06:37;;;;;;;2.15;0.90;;;15.80;99.90;;;;;;6134321;23;20248;-88
2022/05/21 17:09:03;;;;;;;3.47;0.70;;;15.70;99.90;;;;;;6157861;23;20473;-88
2022/05/21 17:11:30;;;;;;;3.03;0.85;;;15.80;99.90;;;;;;6158356;23;20013;-89
2022/05/21 17:13:58;;;;;;;2.28;0.98;;;15.80;99.90;;;;;;6184842;23;20013;-89
2022/05/21 17:16:24;;;;;;;1.52;0.63;;;15.80;99.90;;;;;;6159745;23;20057;-89
2022/05/21 17:18:50;;;;;;;1.83;0.45;;;15.80;99.90;;;;;;6135051;23;20017;-89
2022/05/21 17:21:16;;;;;;;1.08;0.40;;;15.80;99.90;;;;;;6135237;23;20013;-89
2022/05/21 17:23:42;;;;;;;2.45;0.32;;;15.80;99.90;;;;;;6135321;23;20024;-90
2022/05/21 17:26:08;;;;;;;0.63;0.35;;;15.90;99.90;;;;;;6136555;23;20009;-89
2022/05/21 17:31:18;;;;;;;2.47;0.60;;;16.00;99.90;;;;;;6160973;23;20025;-91
2022/05/21 17:33:44;;;;;;;1.58;0.55;;;16.00;99.90;;;;;;6136088;23;20058;-90
2022/05/21 17:36:10;;;;;;;1.88;0.40;;;16.00;99.90;;;;;;6135513;23;20017;-90
2022/05/21 17:38:41;;;;;;;0.90;0.40;;;15.90;99.90;;;;;;6135636;23;20017;-90
2022/05/21 17:41:13;;;;;;;1.58;0.40;;;15.90;99.90;;;;;;6135173;23;20334;-89
2022/05/21 17:43:39;;;;;;;2.03;0.50;;;15.80;99.90;;;;;;6134972;23;20028;-91
2022/05/21 17:46:07;;;;;;;2.22;0.50;;;15.70;99.90;;;;;;6135131;23;20442;-89
2022/05/21 17:48:33;;;;;;;2.38;0.30;;;15.70;99.90;;;;;;6135472;23;20043;-90
2022/05/21 17:50:59;;;;;;;2.67;0.50;;;15.60;99.90;;;;;;6135120;23;20021;-90
2022/05/21 17:53:25;;;;;;;1.67;0.50;;;15.50;99.90;;;;;;6135061;23;20023;-88
2022/05/21 17:55:53;;;;;;;1.55;0.43;;;15.40;99.90;;;;;;6159145;23;20009;-90
2022/05/21 17:58:38;;;;;;;1.63;0.43;;;15.40;99.90;;;;;;6160313;23;20542;-91
2022/05/21 18:01:29;;;;;;;1.98;0.30;;;15.30;99.90;;;;;;6134016;23;20068;-87
2022/05/21 18:03:58;;;;;;;1.80;0.50;;;15.30;99.90;;;;;;6133327;23;20017;-88
2022/05/21 18:14:52;;;;;;;1.38;0.50;;;15.10;99.90;;;;;;6267513;22;20019;-87
2022/05/21 18:44:36;;;;;;;1.88;0.40;;;14.70;99.90;;;;;;6243116;22;20349;-88
2022/05/21 18:47:02;;;;;;;1.52;0.60;;;14.70;99.90;;;;;;6218972;23;20013;-87
2022/05/21 18:49:31;;;;;;;1.60;0.52;;;14.70;99.90;;;;;;6218841;23;20446;-88
2022/05/21 18:52:29;;;;;;;1.83;0.60;;;14.70;99.90;;;;;;6219075;23;20431;-88
2022/05/21 19:00:17;;;;;;;3.42;0.50;;;14.70;99.90;;;;;;6307655;22;20069;-89
2022/05/21 19:02:47;;;;;;;2.50;0.60;;;14.70;99.90;;;;;;6257940;22;20024;-90
2022/05/21 19:05:13;;;;;;;1.45;0.50;;;14.70;99.90;;;;;;6282055;22;20536;-87
2022/05/21 19:10:53;;;;;;;2.00;0.60;;;14.70;99.90;;;;;;6218899;23;20038;-89
2022/05/21 19:13:22;;;;;;;2.75;0.65;;;14.60;99.90;;;;;;6166349;23;20021;-90
2022/05/21 19:15:49;;;;;;;1.98;0.75;;;14.60;99.90;;;;;;6165541;23;20016;-88
2022/05/21 19:20:50;;;;;;;3.92;0.50;;;14.60;99.90;;;;;;6190277;23;20035;-89
2022/05/21 19:23:16;;;;;;;2.95;0.90;;;14.50;99.90;;;;;;6247437;23;20091;-88
2022/05/21 19:25:42;;;;;;;1.93;0.70;;;14.50;99.90;;;;;;6196101;23;20468;-88
2022/05/21 19:28:08;;;;;;;2.50;0.60;;;14.50;99.90;;;;;;6196232;23;20293;-88
2022/05/21 19:30:33;;;;;;;3.10;0.70;;;14.50;99.90;;;;;;6195037;23;20438;-89
2022/05/21 19:32:59;;;;;;;3.35;0.70;;;14.50;99.90;;;;;;6194950;23;20059;-89
2022/05/21 19:35:25;;;;;;;2.60;0.63;;;14.50;99.90;;;;;;6195899;23;20016;-89
2022/05/21 19:37:50;;;;;;;4.32;0.90;;;14.40;99.90;;;;;;6195728;23;20019;-89
2022/05/21 19:43:06;;;;;;;1.98;0.57;;;14.30;99.90;;;;;;6220590;23;20024;-87